createdAt,value
2018-01-27T00:00:25.177Z,94.33
2018-01-27T00:02:54.242Z,105.70
2018-01-27T00:05:22.521Z,109.80
2018-01-27T00:07:50.825Z,108.00
2018-01-27T00:10:19.873Z,90.73
2018-01-27T00:12:48.976Z,106.17
2018-01-27T00:15:17.278Z,100.83
2018-01-27T00:17:45.835Z,98.70
2018-01-27T00:20:14.104Z,88.43
2018-01-27T00:22:52.688Z,104.63
2018-01-27T00:25:21.710Z,89.50
2018-01-27T00:27:49.982Z,101.90
2018-01-27T00:30:18.338Z,101.10
2018-01-27T00:32:46.629Z,97.53
2018-01-27T00:35:14.947Z,92.50
2018-01-27T00:37:43.684Z,95.00
2018-01-27T00:40:12.772Z,105.40
2018-01-27T00:42:41.826Z,92.83
2018-01-27T00:45:10.404Z,100.00
2018-01-27T00:47:38.710Z,99.60
2018-01-27T00:50:06.998Z,95.50
2018-01-27T00:52:35.309Z,89.90
2018-01-27T00:55:03.586Z,81.63
2018-01-27T00:57:31.894Z,68.57
2018-01-27T01:00:00.166Z,90.33
2018-01-27T01:02:28.488Z,82.10
2018-01-27T01:04:56.747Z,91.33
2018-01-27T01:07:25.304Z,92.60
2018-01-27T01:09:53.569Z,94.13
2018-01-27T01:12:21.892Z,92.97
2018-01-27T01:14:50.219Z,78.47
2018-01-27T01:17:19.285Z,92.57
2018-01-27T01:19:48.405Z,79.77
2018-01-27T01:22:16.682Z,86.03
2018-01-27T01:24:45.317Z,95.50
2018-01-27T01:27:13.590Z,95.87
2018-01-27T01:29:41.850Z,87.87
2018-01-27T01:32:10.154Z,98.33
2018-01-27T01:34:38.448Z,93.68
2018-01-27T01:37:07.562Z,110.23
2018-01-27T01:39:36.602Z,96.47
2018-01-27T01:42:04.896Z,95.30
2018-01-27T01:44:33.176Z,101.43
2018-01-27T01:47:01.474Z,88.73
2018-01-27T01:49:29.764Z,108.93
2018-01-27T01:51:58.840Z,97.87
2018-01-27T01:54:27.128Z,89.80
2018-01-27T01:56:56.505Z,100.83
2018-01-27T01:59:24.828Z,105.03
2018-01-27T02:01:53.124Z,101.37
2018-01-27T02:04:21.818Z,102.37
2018-01-27T02:06:50.085Z,106.53
2018-01-27T02:09:18.380Z,96.57
2018-01-27T02:11:46.670Z,124.30
2018-01-27T02:14:14.977Z,107.40
2018-01-27T02:16:43.261Z,102.27
2018-01-27T02:19:12.585Z,95.40
2018-01-27T02:21:41.645Z,91.90
2018-01-27T02:24:09.963Z,101.83
2018-01-27T02:26:39.013Z,97.17
2018-01-27T02:29:07.328Z,99.43
2018-01-27T02:31:36.401Z,108.20
2018-01-27T02:34:04.681Z,99.03
2018-01-27T02:36:33.241Z,87.20
2018-01-27T02:39:01.504Z,98.13
2018-01-27T02:41:30.097Z,98.17
2018-01-27T02:43:58.416Z,95.70
2018-01-27T02:46:27.435Z,86.47
2018-01-27T02:48:55.750Z,81.23
2018-01-27T02:51:24.024Z,95.70
2018-01-27T02:53:54.341Z,81.93
2018-01-27T02:56:22.600Z,102.10
2018-01-27T02:58:50.867Z,84.73
2018-01-27T03:01:19.189Z,91.23
2018-01-27T03:03:47.476Z,91.37
2018-01-27T03:06:15.778Z,98.43
2018-01-27T03:08:44.828Z,86.30
2018-01-27T03:11:13.452Z,89.70
2018-01-27T03:13:41.725Z,92.43
2018-01-27T03:16:10.025Z,92.33
2018-01-27T03:18:39.082Z,90.30
2018-01-27T03:21:07.360Z,94.13
2018-01-27T03:23:35.673Z,81.10
2018-01-27T03:26:03.942Z,97.50
2018-01-27T03:28:33.354Z,82.77
2018-01-27T03:31:03.317Z,89.27
2018-01-27T03:33:31.599Z,78.27
2018-01-27T03:35:59.911Z,83.47
2018-01-27T03:38:28.249Z,95.07
2018-01-27T03:40:56.536Z,95.60
2018-01-27T03:43:24.822Z,84.00
2018-01-27T03:45:53.184Z,87.47
2018-01-27T03:48:22.220Z,82.97
2018-01-27T03:50:50.530Z,89.97
2018-01-27T03:53:18.880Z,84.90
2018-01-27T03:55:47.120Z,83.60
2018-01-27T03:58:15.520Z,86.43
2018-01-27T04:00:43.808Z,82.90
2018-01-27T04:03:12.112Z,85.70
2018-01-27T04:05:41.163Z,86.37
2018-01-27T04:08:09.544Z,85.90
2018-01-27T04:10:37.832Z,80.97
2018-01-27T04:13:06.118Z,88.20
2018-01-27T04:15:34.806Z,104.40
2018-01-27T04:18:03.078Z,84.33
2018-01-27T04:20:31.378Z,90.17
2018-01-27T04:22:59.676Z,79.37
2018-01-27T04:25:27.952Z,89.73
2018-01-27T04:27:56.248Z,82.27
2018-01-27T04:30:24.560Z,84.40
2018-01-27T04:32:53.201Z,84.50
2018-01-27T04:35:21.494Z,95.33
2018-01-27T04:37:49.784Z,90.13
2018-01-27T04:40:18.092Z,86.23
2018-01-27T04:42:46.391Z,78.97
2018-01-27T04:45:14.881Z,92.63
2018-01-27T04:47:43.914Z,66.07
2018-01-27T04:50:13.308Z,84.27
2018-01-27T04:52:41.580Z,75.73
2018-01-27T04:55:09.846Z,87.47
2018-01-27T04:57:38.142Z,74.60
2018-01-27T05:00:06.453Z,90.70
2018-01-27T05:02:34.777Z,85.30
2018-01-27T05:05:03.825Z,78.80
2018-01-27T05:07:32.440Z,77.33
2018-01-27T05:10:00.694Z,75.30
2018-01-27T05:12:29.760Z,78.47
2018-01-27T05:14:58.284Z,71.27
2018-01-27T05:17:26.556Z,77.67
2018-01-27T05:19:54.843Z,79.43
2018-01-27T05:22:23.900Z,81.10
2018-01-27T05:24:52.187Z,81.20
2018-01-27T05:27:20.453Z,72.07
2018-01-27T05:29:49.069Z,59.40
2018-01-27T05:32:17.346Z,75.60
2018-01-27T05:34:45.614Z,81.57
2018-01-27T05:37:13.925Z,70.70
2018-01-27T05:39:42.975Z,83.23
2018-01-27T05:42:11.283Z,74.70
2018-01-27T05:44:39.559Z,80.87
2018-01-27T05:47:08.240Z,70.77
2018-01-27T05:49:36.504Z,70.67
2018-01-27T05:52:04.796Z,83.03
2018-01-27T05:54:33.156Z,71.83
2018-01-27T05:57:01.388Z,77.90
2018-01-27T05:59:29.695Z,69.27
2018-01-27T06:01:57.976Z,75.80
2018-01-27T06:04:26.603Z,83.40
2018-01-27T06:06:54.912Z,71.40
2018-01-27T06:09:23.187Z,67.37
2018-01-27T06:11:51.495Z,67.50
2018-01-27T06:14:19.775Z,84.90
2018-01-27T06:16:48.347Z,62.83
2018-01-27T06:19:16.638Z,70.97
2018-01-27T06:21:44.898Z,78.30
2018-01-27T06:24:13.190Z,82.17
2018-01-27T06:26:41.452Z,63.23
2018-01-27T06:29:10.512Z,55.30
2018-01-27T06:31:39.593Z,64.97
2018-01-27T06:34:07.880Z,72.90
2018-01-27T06:36:36.164Z,64.27
2018-01-27T06:39:05.260Z,72.00
2018-01-27T06:41:33.543Z,65.73
2018-01-27T06:44:02.609Z,61.20
2018-01-27T06:46:30.966Z,71.53
2018-01-27T06:48:59.289Z,68.97
2018-01-27T06:51:27.611Z,67.20
2018-01-27T06:53:55.896Z,67.93
2018-01-27T06:56:24.485Z,81.37
2018-01-27T06:58:52.813Z,69.70
2018-01-27T07:01:21.886Z,66.80
2018-01-27T07:03:50.196Z,70.17
2018-01-27T07:06:19.285Z,70.20
2018-01-27T07:09:02.204Z,66.83
2018-01-27T07:11:31.294Z,68.43
2018-01-27T07:14:00.440Z,73.87
2018-01-27T07:16:30.942Z,59.20
2018-01-27T07:19:00.055Z,71.33
2018-01-27T07:21:28.917Z,74.77
2018-01-27T07:23:58.013Z,76.30
2018-01-27T07:26:34.885Z,66.77
2018-01-27T07:29:03.161Z,75.57
2018-01-27T07:31:31.509Z,78.13
2018-01-27T07:33:59.776Z,72.40
2018-01-27T07:36:29.378Z,75.50
2018-01-27T07:38:57.632Z,75.30
2018-01-27T07:41:25.996Z,67.03
2018-01-27T07:43:54.270Z,65.83
2018-01-27T07:46:22.574Z,69.97
2018-01-27T07:48:50.872Z,61.70
2018-01-27T07:51:19.151Z,69.83
2018-01-27T07:53:47.463Z,75.30
2018-01-27T07:56:15.756Z,71.37
2018-01-27T07:58:44.828Z,66.03
2018-01-27T08:01:13.104Z,65.67
2018-01-27T08:03:41.409Z,74.03
2018-01-27T08:06:10.559Z,84.40
2018-01-27T08:08:38.822Z,81.87
2018-01-27T08:11:07.133Z,73.33
2018-01-27T08:13:35.421Z,71.57
2018-01-27T08:16:03.799Z,71.47
2018-01-27T08:18:32.086Z,70.63
2018-01-27T08:41:52.742Z,68.17
2018-01-27T08:44:21.822Z,67.30
2018-01-27T08:46:50.153Z,86.00
2018-01-27T08:49:19.818Z,79.12
2018-01-27T08:51:48.264Z,88.87
2018-01-27T08:54:16.579Z,83.73
2018-01-27T08:56:44.940Z,89.90
2018-01-27T08:59:13.290Z,85.87
2018-01-27T09:04:41.452Z,78.60
2018-01-27T09:07:10.529Z,75.37
2018-01-27T09:09:38.931Z,85.40
2018-01-27T09:12:07.231Z,81.83
2018-01-27T09:14:35.585Z,88.70
2018-01-27T09:17:04.637Z,91.60
2018-01-27T09:19:33.001Z,70.63
2018-01-27T09:22:01.382Z,95.17
2018-01-27T09:24:29.676Z,90.03
2018-01-27T09:26:57.961Z,79.10
2018-01-27T09:29:26.268Z,82.07
2018-01-27T09:31:55.339Z,77.37
2018-01-27T09:34:23.631Z,89.30
2018-01-27T09:36:51.940Z,97.27
2018-01-27T09:39:20.222Z,77.33
2018-01-27T09:41:50.619Z,87.40
2018-01-27T09:44:19.214Z,84.30
2018-01-27T09:46:48.306Z,82.87
2018-01-27T09:49:17.520Z,88.77
2018-01-27T09:51:46.988Z,88.70
2018-01-27T09:54:15.297Z,75.27
2018-01-27T09:56:44.473Z,91.47
2018-01-27T09:59:12.810Z,83.23
2018-01-27T10:01:41.291Z,81.23
2018-01-27T10:04:17.369Z,85.80
2018-01-27T10:06:45.960Z,85.63
2018-01-27T10:09:14.285Z,93.10
2018-01-27T10:11:43.331Z,87.97
2018-01-27T10:14:12.401Z,80.40
2018-01-27T10:16:40.733Z,84.73
2018-01-27T10:19:09.718Z,81.03
2018-01-27T10:21:38.508Z,93.93
2018-01-27T10:24:06.807Z,96.23
2018-01-27T10:26:35.124Z,80.40
2018-01-27T10:29:03.424Z,88.17
2018-01-27T10:31:31.731Z,85.70
2018-01-27T10:34:00.039Z,85.63
2018-01-27T10:36:29.090Z,87.80
2018-01-27T10:38:57.402Z,98.40
2018-01-27T10:41:26.447Z,88.80
2018-01-27T10:43:54.790Z,99.53
2018-01-27T10:46:23.090Z,90.80
2018-01-27T10:48:51.418Z,100.03
2018-01-27T10:51:19.700Z,94.57
2018-01-27T10:53:48.027Z,86.57
2018-01-27T10:56:17.163Z,102.13
2018-01-27T10:58:48.241Z,116.87
2018-01-27T11:01:17.384Z,92.97
2018-01-27T11:03:45.703Z,99.17
2018-01-27T11:06:14.037Z,107.47
2018-01-27T11:08:42.380Z,94.40
2018-01-27T11:11:10.674Z,102.47
2018-01-27T11:13:39.003Z,93.47
2018-01-27T11:16:07.275Z,90.03
2018-01-27T11:18:35.602Z,91.60
2018-01-27T11:21:03.896Z,104.57
2018-01-27T11:23:32.246Z,95.87
2018-01-27T11:26:00.575Z,100.03
2018-01-27T11:28:28.878Z,91.23
2018-01-27T11:30:57.230Z,98.10
2018-01-27T11:33:25.507Z,78.93
2018-01-27T11:35:53.842Z,95.63
2018-01-27T11:38:22.141Z,97.67
2018-01-27T11:40:50.461Z,91.33
2018-01-27T11:43:18.772Z,97.27
2018-01-27T11:45:47.114Z,94.80
2018-01-27T11:48:15.404Z,105.47
2018-01-27T11:50:43.705Z,108.37
2018-01-27T11:53:12.837Z,87.77
2018-01-27T11:55:41.127Z,101.20
2018-01-27T11:58:09.622Z,92.37
2018-01-27T12:00:37.890Z,99.90
2018-01-27T12:03:06.213Z,106.70
2018-01-27T12:05:35.315Z,105.77
2018-01-27T12:08:04.492Z,94.83
2018-01-27T12:10:32.872Z,93.17
2018-01-27T12:13:01.566Z,90.57
2018-01-27T12:15:29.933Z,80.53
2018-01-27T12:17:58.321Z,104.53
2018-01-27T12:20:26.730Z,100.53
2018-01-27T12:22:55.113Z,96.63
2018-01-27T12:25:24.229Z,85.83
2018-01-27T12:27:52.550Z,114.87
2018-01-27T12:30:20.897Z,74.27
2018-01-27T12:32:49.489Z,87.67
2018-01-27T12:35:17.824Z,90.40
2018-01-27T12:37:46.205Z,102.27
2018-01-27T12:40:14.721Z,92.47
2018-01-27T12:42:44.143Z,85.97
2018-01-27T12:45:12.429Z,90.70
2018-01-27T12:47:41.029Z,83.93
2018-01-27T12:50:09.474Z,82.57
2018-01-27T12:52:37.782Z,80.73
2018-01-27T12:55:06.873Z,87.17
2018-01-27T12:57:35.267Z,75.53
2018-01-27T13:00:03.639Z,76.27
2018-01-27T13:02:31.906Z,88.53
2018-01-27T13:05:00.233Z,84.53
2018-01-27T13:07:28.545Z,76.77
2018-01-27T13:09:56.885Z,77.77
2018-01-27T13:12:25.968Z,75.70
2018-01-27T13:14:54.485Z,85.37
2018-01-27T13:17:23.648Z,79.80
2018-01-27T13:19:51.932Z,68.43
2018-01-27T13:22:21.009Z,68.53
2018-01-27T13:24:49.302Z,77.23
2018-01-27T13:27:17.650Z,75.47
2018-01-27T13:29:45.949Z,80.97
2018-01-27T13:32:14.247Z,82.10
2018-01-27T13:34:43.326Z,73.97
2018-01-27T13:37:11.647Z,73.27
2018-01-27T13:39:39.952Z,64.27
2018-01-27T13:42:08.326Z,91.67
2018-01-27T13:44:36.654Z,65.90
2018-01-27T13:47:04.938Z,78.27
2018-01-27T13:49:34.334Z,89.53
2018-01-27T13:52:03.386Z,80.13
2018-01-27T13:54:31.699Z,85.90
2018-01-27T13:56:59.989Z,91.03
2018-01-27T13:59:29.073Z,95.70
2018-01-27T14:01:57.386Z,84.23
2018-01-27T14:04:25.701Z,98.30
2018-01-27T14:06:54.030Z,89.90
2018-01-27T14:09:23.121Z,86.30
2018-01-27T14:11:52.257Z,92.70
2018-01-27T14:14:20.585Z,104.07
2018-01-27T14:16:49.656Z,90.93
2018-01-27T14:19:17.971Z,106.23
2018-01-27T14:21:51.086Z,99.87
2018-01-27T14:42:34.846Z,91.37
2018-01-27T14:45:03.157Z,94.70
2018-01-27T14:47:31.470Z,92.93
2018-01-27T14:49:59.776Z,97.63
2018-01-27T14:52:28.069Z,91.03
2018-01-27T14:54:56.512Z,102.40
2018-01-27T14:57:24.788Z,101.67
2018-01-27T14:59:53.132Z,97.70
2018-01-27T15:02:21.418Z,83.27
2018-01-27T15:07:50.774Z,82.80
2018-01-27T15:10:36.349Z,101.33
2018-01-27T15:13:04.658Z,94.27
2018-01-27T15:15:33.710Z,97.27
2018-01-27T15:18:02.042Z,96.90
2018-01-27T15:20:30.340Z,108.20
2018-01-27T15:22:58.724Z,97.70
2018-01-27T15:25:27.035Z,88.70
2018-01-27T15:27:55.329Z,94.43
2018-01-27T15:30:24.410Z,107.17
2018-01-27T15:32:52.704Z,95.03
2018-01-27T15:35:22.048Z,93.37
2018-01-27T15:37:50.397Z,87.33
2018-01-27T15:40:19.448Z,86.10
2018-01-27T15:42:47.793Z,105.80
2018-01-27T15:45:16.071Z,79.03
2018-01-27T15:47:44.394Z,104.87
2018-01-27T15:50:12.689Z,106.80
2018-01-27T15:52:42.184Z,126.17
2018-01-27T15:55:10.486Z,135.70
2018-01-27T15:57:39.530Z,115.67
2018-01-27T16:00:07.848Z,125.27
2018-01-27T16:02:36.185Z,132.87
2018-01-27T16:05:05.121Z,124.63
2018-01-27T16:07:34.207Z,119.30
2018-01-27T16:10:02.551Z,123.43
2018-01-27T16:12:30.847Z,124.30
2018-01-27T16:14:59.145Z,113.13
2018-01-27T16:17:27.462Z,128.67
2018-01-27T16:19:55.796Z,112.53
2018-01-27T16:22:24.114Z,111.10
2018-01-27T16:24:52.432Z,122.33
2018-01-27T16:27:21.567Z,103.37
2018-01-27T16:29:49.851Z,106.53
2018-01-27T16:32:18.945Z,136.87
2018-01-27T16:34:47.283Z,127.53
2018-01-27T16:37:15.568Z,125.00
2018-01-27T16:39:44.694Z,121.57
2018-01-27T16:42:13.758Z,105.13
2018-01-27T16:44:42.102Z,98.97
2018-01-27T16:47:10.437Z,66.47
2018-01-27T16:49:38.747Z,84.03
2018-01-27T16:52:07.846Z,84.40
2018-01-27T16:54:36.913Z,109.33
2018-01-27T16:57:05.251Z,89.47
2018-01-27T16:59:34.368Z,91.17
2018-01-27T17:02:02.734Z,92.73
2018-01-27T17:04:31.042Z,91.40
2018-01-27T17:06:59.388Z,83.40
2018-01-27T17:09:27.709Z,86.97
2018-01-27T17:11:56.004Z,79.67
2018-01-27T17:14:24.334Z,93.70
2018-01-27T17:16:54.600Z,96.53
2018-01-27T17:19:22.945Z,75.80
2018-01-27T17:21:51.243Z,87.40
2018-01-27T17:24:20.614Z,97.65
2018-01-27T17:26:48.987Z,104.03
2018-01-27T17:29:17.262Z,92.23
2018-01-27T17:31:45.582Z,73.27
2018-01-27T17:34:13.872Z,77.07
2018-01-27T17:36:42.964Z,83.00
2018-01-27T17:39:11.857Z,79.50
2018-01-27T17:41:40.141Z,74.03
2018-01-27T17:44:09.206Z,73.90
2018-01-27T17:46:37.489Z,72.37
2018-01-27T17:49:05.802Z,65.37
2018-01-27T17:51:34.088Z,73.67
2018-01-27T17:54:02.462Z,62.03
2018-01-27T17:56:31.553Z,63.23
2018-01-27T17:59:00.641Z,75.40
2018-01-27T18:01:29.715Z,69.53
2018-01-27T18:03:58.015Z,69.30
2018-01-27T18:06:27.128Z,74.73
2018-01-27T18:08:55.444Z,73.07
2018-01-27T18:11:24.591Z,72.23
2018-01-27T18:13:53.669Z,64.87
2018-01-27T18:16:22.802Z,67.40
2018-01-27T18:18:51.096Z,70.10
2018-01-27T18:21:19.431Z,67.63
2018-01-27T18:23:47.728Z,73.33
2018-01-27T18:26:16.042Z,79.83
2018-01-27T18:28:44.347Z,68.83
2018-01-27T18:31:12.695Z,86.10
2018-01-27T18:33:41.035Z,70.50
2018-01-27T18:36:09.324Z,78.30
2018-01-27T18:38:38.116Z,74.10
2018-01-27T18:41:06.426Z,80.67
2018-01-27T18:43:34.804Z,68.03
2018-01-27T18:46:03.102Z,83.03
2018-01-27T18:48:31.382Z,69.00
2018-01-27T18:50:59.741Z,81.80
2018-01-27T18:53:28.063Z,79.13
2018-01-27T18:55:56.489Z,77.43
2018-01-27T18:58:25.537Z,83.30
2018-01-27T19:00:54.634Z,83.00
2018-01-27T19:03:23.320Z,82.87
2018-01-27T19:05:51.846Z,74.20
2018-01-27T19:08:20.143Z,86.70
2018-01-27T19:10:48.459Z,79.10
2018-01-27T19:13:16.781Z,65.77
2018-01-27T19:15:45.156Z,71.20
2018-01-27T19:18:13.479Z,74.07
2018-01-27T19:20:41.771Z,77.37
2018-01-27T19:23:10.142Z,80.90
2018-01-27T19:25:38.477Z,66.43
2018-01-27T19:28:06.772Z,69.03
2018-01-27T19:30:35.125Z,61.93
2018-01-27T19:33:03.475Z,66.10
2018-01-27T19:35:31.788Z,76.17
2018-01-27T19:38:02.656Z,78.20
2018-01-27T19:40:30.984Z,67.67
2018-01-27T19:43:00.129Z,81.70
2018-01-27T19:45:28.398Z,61.83
2018-01-27T19:47:56.736Z,79.10
2018-01-27T19:50:25.780Z,74.53
2018-01-27T19:52:54.137Z,70.57
2018-01-27T19:55:23.321Z,66.63
2018-01-27T19:57:51.636Z,77.97
2018-01-27T20:00:19.941Z,62.50
2018-01-27T20:02:49.079Z,62.47
2018-01-27T20:05:18.133Z,82.80
2018-01-27T20:07:46.511Z,72.77
2018-01-27T20:10:15.757Z,68.90
2018-01-27T20:12:46.032Z,58.70
2018-01-27T20:15:14.407Z,62.93
2018-01-27T20:17:42.708Z,59.13
2018-01-27T20:20:11.044Z,71.40
2018-01-27T20:22:39.340Z,58.57
2018-01-27T20:25:07.935Z,73.27
2018-01-27T20:27:36.259Z,67.97
2018-01-27T20:30:04.595Z,75.70
2018-01-27T20:32:32.899Z,58.73
2018-01-27T20:35:01.238Z,68.10
2018-01-27T20:37:29.549Z,71.30
2018-01-27T20:39:57.868Z,56.13
2018-01-27T20:42:26.172Z,66.47
2018-01-27T20:44:54.446Z,54.93
2018-01-27T20:47:23.148Z,63.13
2018-01-27T20:49:51.453Z,53.57
2018-01-27T20:52:20.511Z,65.83
2018-01-27T20:54:48.876Z,53.57
2018-01-27T20:57:17.155Z,59.80
2018-01-27T20:59:45.474Z,51.47
2018-01-27T21:02:13.751Z,54.97
2018-01-27T21:04:42.091Z,55.77
2018-01-27T21:07:10.398Z,61.03
2018-01-27T21:09:38.688Z,62.17
2018-01-27T21:12:07.017Z,66.97
2018-01-27T21:14:36.060Z,62.37
2018-01-27T21:17:04.379Z,60.63
2018-01-27T21:19:32.678Z,72.00
2018-01-27T21:22:01.011Z,53.10
2018-01-27T21:24:30.211Z,49.47
2018-01-27T21:26:59.320Z,58.20
2018-01-27T21:29:27.668Z,59.93
2018-01-27T21:31:55.962Z,55.33
2018-01-27T21:34:24.448Z,53.90
2018-01-27T21:36:53.663Z,51.30
2018-01-27T21:39:22.807Z,51.87
2018-01-27T21:41:51.200Z,58.50
2018-01-27T21:44:21.083Z,53.42
2018-01-27T21:46:49.350Z,58.60
2018-01-27T21:49:17.614Z,60.00
2018-01-27T21:51:46.109Z,62.23
2018-01-27T21:54:15.298Z,51.03
2018-01-27T21:56:43.700Z,46.57
2018-01-27T21:59:12.022Z,54.17
2018-01-27T22:01:41.237Z,51.20
2018-01-27T22:04:10.288Z,54.80
2018-01-27T22:06:38.571Z,54.00
2018-01-27T22:09:06.891Z,52.47
2018-01-27T22:11:35.964Z,58.00
2018-01-27T22:14:04.323Z,58.63
2018-01-27T22:16:32.633Z,68.73
2018-01-27T22:19:01.042Z,64.20
2018-01-27T22:21:29.341Z,46.03
2018-01-27T22:23:57.994Z,52.30
2018-01-27T22:26:27.316Z,51.33
2018-01-27T22:28:55.787Z,54.57
2018-01-27T22:31:25.000Z,50.17
2018-01-27T22:33:53.326Z,52.67
2018-01-27T22:36:21.643Z,42.27
2018-01-27T22:38:50.007Z,65.30
2018-01-27T22:41:20.443Z,53.60
2018-01-27T22:43:49.630Z,50.60
2018-01-27T22:46:17.985Z,48.80
2018-01-27T22:48:46.353Z,49.80
2018-01-27T22:51:14.667Z,59.40
2018-01-27T22:53:43.015Z,49.57
2018-01-27T22:56:12.042Z,41.40
2018-01-27T22:58:41.370Z,46.17
2018-01-27T23:01:16.066Z,44.73
2018-01-27T23:03:45.264Z,51.37
2018-01-27T23:06:13.603Z,47.17
2018-01-27T23:08:43.879Z,42.20
2018-01-27T23:11:12.975Z,47.27
2018-01-27T23:13:41.382Z,41.70
2018-01-27T23:16:09.824Z,51.07
2018-01-27T23:18:39.067Z,38.57
2018-01-27T23:21:09.210Z,44.70
2018-01-27T23:23:37.611Z,49.90
2018-01-27T23:26:05.953Z,37.03
2018-01-27T23:28:34.289Z,43.60
2018-01-27T23:31:02.776Z,38.53
2018-01-27T23:33:32.009Z,39.10
2018-01-27T23:36:00.305Z,44.47
2018-01-27T23:38:29.387Z,48.27
2018-01-27T23:40:57.702Z,35.53
2018-01-27T23:43:26.017Z,33.10
2018-01-27T23:45:55.158Z,30.33
2018-01-27T23:48:23.629Z,40.70
2018-01-27T23:50:51.919Z,37.77
2018-01-27T23:53:20.266Z,31.77
2018-01-27T23:55:48.584Z,37.00
2018-01-27T23:58:17.090Z,42.40
